Time;durP1;ratioP1;P1;durP2;ratioP2;P2;SDS_P1;SDS_P2;PMS_P1;PMS_P2;Temp;Humidity;BMP_temperature;BMP_pressure;BME280_temperature;BME280_humidity;BME280_pressure;Samples;Min_cycle;Max_cycle;Signal;HPM_P1;HPM_P2
2023/12/07 00:01:08;;;;;;;12.50;8.80;;;;;;;7.33;55.31;97738.38;5062519;28;20425;-69
2023/12/07 00:03:33;;;;;;;12.90;8.40;;;;;;;7.36;55.41;97734.69;5060960;28;20182;-70
2023/12/07 00:05:59;;;;;;;15.40;9.23;;;;;;;7.34;54.74;97741.78;5034185;28;20206;-70
2023/12/07 00:08:25;;;;;;;19.40;9.57;;;;;;;7.39;55.30;97737.06;5014166;28;20248;-71
2023/12/07 00:10:50;;;;;;;13.70;9.40;;;;;;;7.39;54.68;97742.28;5038206;28;20187;-69
2023/12/07 00:13:15;;;;;;;11.80;8.80;;;;;;;7.40;55.09;97749.16;5037843;28;20205;-71
2023/12/07 00:15:41;;;;;;;19.03;9.20;;;;;;;7.44;54.89;97747.94;5001006;28;20201;-70
2023/12/07 00:18:06;;;;;;;9.97;8.50;;;;;;;7.45;55.56;97752.22;5066227;28;20182;-69
2023/12/07 00:20:32;;;;;;;15.13;9.40;;;;;;;7.38;55.79;97746.66;5068576;28;20188;-69
2023/12/07 00:22:57;;;;;;;14.60;9.87;;;;;;;7.42;55.89;97739.44;5063387;28;20193;-69
2023/12/07 00:25:23;;;;;;;12.17;9.40;;;;;;;7.37;55.93;97739.78;5060029;28;20731;-70
2023/12/07 00:27:49;;;;;;;13.23;8.87;;;;;;;7.36;56.22;97752.94;5068182;28;20217;-70
2023/12/07 00:30:14;;;;;;;10.33;8.53;;;;;;;7.36;55.76;97753.78;5059875;28;20660;-69
2023/12/07 00:32:43;;;;;;;12.03;9.07;;;;;;;7.40;55.94;97758.75;5061460;28;20698;-69
2023/12/07 00:35:12;;;;;;;12.37;8.97;;;;;;;7.39;56.30;97757.91;5067827;28;20206;-70
2023/12/07 00:37:37;;;;;;;12.80;9.70;;;;;;;7.35;55.99;97757.34;5063132;28;20436;-68
2023/12/07 00:40:04;;;;;;;13.10;8.80;;;;;;;7.34;56.33;97760.03;5060248;28;20498;-70
2023/12/07 00:42:30;;;;;;;12.60;9.40;;;;;;;7.28;56.68;97763.94;5065781;28;20239;-69
2023/12/07 00:44:55;;;;;;;20.17;10.50;;;;;;;7.30;56.74;97762.06;5067607;28;20594;-70
2023/12/07 00:47:21;;;;;;;14.87;9.10;;;;;;;7.31;55.63;97763.72;5057697;28;20186;-68
2023/12/07 00:49:46;;;;;;;11.10;8.17;;;;;;;7.29;56.29;97764.81;5067944;28;20188;-69
2023/12/07 00:52:12;;;;;;;11.80;7.70;;;;;;;7.28;55.63;97760.53;5060829;28;20182;-70
2023/12/07 00:54:39;;;;;;;11.10;8.70;;;;;;;7.29;55.53;97759.59;5060266;28;20206;-69
2023/12/07 00:57:04;;;;;;;10.07;7.73;;;;;;;7.33;54.88;97761.84;5066824;28;20494;-70
2023/12/07 00:59:33;;;;;;;9.50;7.33;;;;;;;7.31;54.89;97760.31;5067662;28;20510;-69
2023/12/07 01:02:01;;;;;;;10.03;7.43;;;;;;;7.31;54.70;97758.50;5057645;28;20205;-68
2023/12/07 01:04:28;;;;;;;15.00;8.10;;;;;;;7.35;54.24;97761.69;5059925;28;20440;-70
2023/12/07 01:06:53;;;;;;;9.60;7.40;;;;;;;7.38;53.99;97759.69;5059699;28;20478;-69
2023/12/07 01:09:18;;;;;;;9.47;7.10;;;;;;;7.43;53.57;97763.72;5063389;28;20414;-69
2023/12/07 01:11:44;;;;;;;11.97;7.70;;;;;;;7.40;53.81;97764.81;5058093;28;20257;-70
2023/12/07 01:14:11;;;;;;;9.27;7.33;;;;;;;7.34;53.94;97768.72;5059734;28;20233;-71
2023/12/07 01:16:36;;;;;;;11.83;7.70;;;;;;;7.40;53.92;97772.63;5063623;28;20515;-69
2023/12/07 01:19:02;;;;;;;8.80;6.60;;;;;;;7.38;53.32;97775.34;5064435;28;20544;-68
2023/12/07 01:21:27;;;;;;;10.83;7.50;;;;;;;7.42;53.44;97778.56;5067689;28;20177;-70
2023/12/07 01:23:53;;;;;;;10.33;7.57;;;;;;;7.42;53.90;97778.56;5065203;28;20218;-69
2023/12/07 01:26:18;;;;;;;8.37;6.83;;;;;;;7.36;53.26;97784.22;5066921;28;20239;-69
2023/12/07 01:28:44;;;;;;;14.43;7.37;;;;;;;7.35;54.33;97782.56;5064801;28;20377;-69
2023/12/07 01:31:09;;;;;;;7.87;6.50;;;;;;;7.35;53.63;97782.56;5067183;28;20217;-69
2023/12/07 01:33:35;;;;;;;10.07;7.50;;;;;;;7.34;53.73;97781.75;5066266;28;20178;-68
2023/12/07 01:36:00;;;;;;;10.80;8.00;;;;;;;7.40;54.26;97788.28;5067499;28;20221;-68
2023/12/07 01:38:25;;;;;;;10.77;7.30;;;;;;;7.37;54.40;97778.06;5031462;28;20203;-69
2023/12/07 01:40:51;;;;;;;10.03;7.33;;;;;;;7.37;54.29;97785.91;5026571;28;20188;-70
2023/12/07 01:43:17;;;;;;;9.00;7.40;;;;;;;7.40;53.83;97785.66;5017971;28;20236;-69
2023/12/07 01:45:42;;;;;;;11.10;7.73;;;;;;;7.44;54.05;97794.88;5049622;28;20206;-70
2023/12/07 01:48:08;;;;;;;9.67;7.43;;;;;;;7.44;53.48;97792.28;5025605;28;20432;-70
2023/12/07 01:50:33;;;;;;;8.47;7.10;;;;;;;7.43;53.38;97810.66;5052091;28;20276;-69
2023/12/07 01:53:01;;;;;;;14.00;6.97;;;;;;;7.38;53.44;97793.59;5048568;28;20195;-72
2023/12/07 01:55:27;;;;;;;8.63;7.33;;;;;;;7.36;53.75;97792.06;5067425;28;20210;-71
2023/12/07 01:57:53;;;;;;;10.13;7.67;;;;;;;7.43;52.95;97797.63;5049037;28;20922;-69
2023/12/07 02:00:19;;;;;;;9.10;7.40;;;;;;;7.48;52.89;97792.91;5034892;28;20252;-72
2023/12/07 02:02:46;;;;;;;9.30;7.10;;;;;;;7.44;52.54;97799.28;5061744;28;20195;-70
2023/12/07 02:05:12;;;;;;;9.70;7.50;;;;;;;7.35;53.04;97796.44;5066236;28;20456;-69
2023/12/07 02:07:40;;;;;;;9.50;6.97;;;;;;;7.35;53.24;97803.44;5064219;28;20796;-70
2023/12/07 02:10:06;;;;;;;10.40;7.50;;;;;;;7.28;53.06;97803.06;5062537;28;20792;-71
2023/12/07 02:12:32;;;;;;;17.13;7.57;;;;;;;7.31;53.42;97802.03;5067307;28;20441;-70
2023/12/07 02:14:57;;;;;;;9.43;7.10;;;;;;;7.29;53.08;97793.47;5049372;28;20510;-71
2023/12/07 02:17:35;;;;;;;7.90;6.20;;;;;;;7.32;53.14;97795.84;5065580;28;20187;-71
2023/12/07 02:20:06;;;;;;;10.00;7.40;;;;;;;7.28;53.02;97786.59;5066890;28;20301;-71
2023/12/07 02:22:39;;;;;;;9.70;7.80;;;;;;;7.18;53.81;97787.28;5067494;28;20700;-70
2023/12/07 02:25:09;;;;;;;9.70;7.00;;;;;;;7.13;53.75;97781.59;5048989;28;20444;-68
2023/12/07 02:27:36;;;;;;;9.60;7.10;;;;;;;7.16;53.38;97789.19;5061052;28;20420;-68
2023/12/07 02:30:02;;;;;;;10.23;7.17;;;;;;;7.11;53.84;97793.91;5067086;28;20425;-68
2023/12/07 02:32:28;;;;;;;11.87;7.10;;;;;;;7.07;53.39;97789.88;5067074;28;20420;-70
2023/12/07 02:34:54;;;;;;;10.47;7.03;;;;;;;7.02;53.43;97787.63;5062523;28;20656;-69
2023/12/07 02:37:21;;;;;;;11.23;6.70;;;;;;;6.96;53.75;97789.84;5052537;28;20182;-70
2023/12/07 02:39:48;;;;;;;11.43;7.40;;;;;;;6.93;53.86;97787.50;5066847;28;20465;-70
2023/12/07 02:42:14;;;;;;;8.80;7.33;;;;;;;6.88;54.21;97791.28;5052113;28;20429;-70
2023/12/07 02:44:39;;;;;;;8.80;6.73;;;;;;;6.86;54.13;97800.97;5065840;28;20452;-68
2023/12/07 02:47:05;;;;;;;9.40;6.53;;;;;;;6.75;54.37;97790.53;5048875;28;20178;-70
2023/12/07 02:49:31;;;;;;;12.17;7.50;;;;;;;6.72;54.14;97788.97;5061360;28;20313;-71
2023/12/07 02:51:56;;;;;;;9.13;6.60;;;;;;;6.65;54.51;97790.38;5070192;28;20191;-70
2023/12/07 02:54:21;;;;;;;7.83;6.77;;;;;;;6.58;55.05;97783.97;5066204;28;20206;-69
2023/12/07 02:56:48;;;;;;;10.90;6.80;;;;;;;6.60;54.98;97788.09;5060140;28;20186;-70
2023/12/07 02:59:13;;;;;;;9.07;6.47;;;;;;;6.51;55.25;97799.22;5069462;28;20291;-69
2023/12/07 03:01:39;;;;;;;9.03;6.97;;;;;;;6.54;55.19;97798.13;5062044;28;20509;-68
2023/12/07 03:04:04;;;;;;;9.53;7.20;;;;;;;6.57;54.97;97793.53;5070131;28;20780;-69
2023/12/07 03:06:30;;;;;;;9.63;7.73;;;;;;;6.53;54.88;97799.94;5068613;28;20329;-69
2023/12/07 03:08:55;;;;;;;8.87;6.90;;;;;;;6.52;54.99;97800.88;5061780;28;20203;-70
2023/12/07 03:11:21;;;;;;;10.50;8.17;;;;;;;6.51;54.97;97807.03;5067326;28;20261;-68
2023/12/07 03:13:46;;;;;;;11.77;7.60;;;;;;;6.54;54.45;97803.34;5051228;28;20865;-69
2023/12/07 03:16:12;;;;;;;10.77;8.03;;;;;;;6.58;54.67;97805.63;5069080;28;20547;-69
2023/12/07 03:18:37;;;;;;;8.53;7.63;;;;;;;6.57;54.58;97803.94;5066318;28;20213;-69
2023/12/07 03:21:03;;;;;;;11.53;8.33;;;;;;;6.53;54.93;97806.91;5066168;28;20178;-69
2023/12/07 03:23:28;;;;;;;8.47;7.10;;;;;;;6.27;55.09;97813.06;5068233;28;20197;-68
2023/12/07 03:25:54;;;;;;;9.70;6.73;;;;;;;6.29;55.11;97811.19;5065271;28;20221;-69
2023/12/07 03:28:19;;;;;;;8.50;7.00;;;;;;;6.28;55.11;97806.06;5060297;28;20178;-69
2023/12/07 03:30:45;;;;;;;10.80;8.07;;;;;;;6.25;55.34;97814.09;5067210;28;20213;-70
2023/12/07 03:33:10;;;;;;;11.70;8.03;;;;;;;6.29;55.21;97803.38;5069394;28;20699;-70
2023/12/07 03:35:36;;;;;;;13.77;8.70;;;;;;;6.36;55.01;97806.38;5066326;28;20700;-69
2023/12/07 03:38:02;;;;;;;14.73;9.53;;;;;;;6.34;54.69;97805.66;5069081;28;20178;-70
2023/12/07 03:40:27;;;;;;;16.70;9.50;;;;;;;6.22;55.21;97809.94;5068580;28;20206;-70
2023/12/07 03:42:53;;;;;;;15.00;10.00;;;;;;;6.22;55.43;97815.16;5069065;28;20425;-70
2023/12/07 03:45:18;;;;;;;15.50;10.37;;;;;;;6.20;55.41;97816.22;5061385;28;20333;-70
2023/12/07 03:47:44;;;;;;;13.63;9.50;;;;;;;6.16;55.46;97818.22;5065335;28;20226;-71
2023/12/07 03:50:09;;;;;;;13.20;9.17;;;;;;;6.18;55.47;97818.09;5069379;28;20205;-69
2023/12/07 03:52:34;;;;;;;12.00;8.90;;;;;;;6.19;55.58;97817.97;5067205;28;20213;-69
2023/12/07 03:55:00;;;;;;;14.27;9.53;;;;;;;6.21;55.80;97816.09;5062997;28;20253;-69
2023/12/07 03:57:25;;;;;;;14.53;9.70;;;;;;;6.20;55.78;97814.44;5066815;28;20209;-72
2023/12/07 03:59:52;;;;;;;10.77;8.60;;;;;;;6.20;55.57;97817.03;5068658;28;20285;-70
2023/12/07 04:02:17;;;;;;;13.07;8.73;;;;;;;6.23;55.69;97829.00;5060613;28;20186;-69
2023/12/07 04:04:43;;;;;;;12.73;8.80;;;;;;;6.16;55.31;97815.59;5061550;28;20432;-69
2023/12/07 04:07:08;;;;;;;11.50;8.57;;;;;;;6.10;54.92;97826.44;5068412;28;20178;-72
2023/12/07 04:09:33;;;;;;;13.40;9.50;;;;;;;6.01;55.76;97833.13;5067986;28;20174;-71
2023/12/07 04:11:59;;;;;;;11.67;8.80;;;;;;;5.95;55.46;97828.31;5068445;28;20190;-70
2023/12/07 04:14:24;;;;;;;12.57;8.73;;;;;;;5.93;55.70;97833.63;5067957;28;20289;-69
2023/12/07 04:16:50;;;;;;;11.07;8.10;;;;;;;5.91;56.11;97832.94;5068644;28;20269;-69
2023/12/07 04:19:15;;;;;;;12.67;8.00;;;;;;;5.90;55.85;97831.25;5049818;28;20260;-70
2023/12/07 04:21:41;;;;;;;10.03;7.17;;;;;;;5.94;56.05;97839.69;5055120;28;20260;-70
2023/12/07 04:24:06;;;;;;;10.97;8.83;;;;;;;5.95;55.61;97842.16;5068865;28;20294;-70
2023/12/07 04:26:32;;;;;;;12.53;8.20;;;;;;;5.87;55.78;97841.03;5063008;28;20190;-69
2023/12/07 04:28:57;;;;;;;11.47;8.47;;;;;;;5.84;55.96;97847.28;5062434;28;20731;-71
2023/12/07 04:31:22;;;;;;;10.67;8.10;;;;;;;5.83;55.55;97846.47;5064522;28;20269;-69
2023/12/07 04:33:48;;;;;;;10.93;8.10;;;;;;;5.79;55.61;97838.97;5061489;28;20226;-69
2023/12/07 04:36:13;;;;;;;11.60;8.73;;;;;;;5.68;56.19;97837.94;5061925;28;20218;-70
2023/12/07 04:38:40;;;;;;;12.53;8.67;;;;;;;5.69;56.15;97842.19;5063409;28;20206;-70
2023/12/07 04:41:05;;;;;;;10.03;8.27;;;;;;;5.70;55.75;97848.25;5062982;28;20194;-70
2023/12/07 04:43:30;;;;;;;13.60;9.10;;;;;;;5.69;56.20;97842.19;5067666;28;20429;-70
2023/12/07 04:45:56;;;;;;;12.67;9.00;;;;;;;5.66;55.82;97842.44;5063573;28;20266;-70
2023/12/07 04:48:21;;;;;;;13.13;8.43;;;;;;;5.65;56.02;97837.31;5043771;28;20191;-71
2023/12/07 04:50:47;;;;;;;10.47;8.20;;;;;;;5.66;55.94;97845.03;5060372;28;20262;-70
2023/12/07 04:53:12;;;;;;;11.80;8.40;;;;;;;5.61;56.09;97843.66;5067351;28;20194;-69
2023/12/07 04:55:38;;;;;;;10.77;7.93;;;;;;;5.60;56.04;97839.44;5058681;28;21200;-70
2023/12/07 04:58:03;;;;;;;11.63;8.20;;;;;;;5.67;55.99;97843.25;5060424;28;20227;-69
2023/12/07 05:00:28;;;;;;;14.30;8.47;;;;;;;5.59;56.30;97838.56;5061317;28;20256;-69
2023/12/07 05:02:54;;;;;;;11.10;8.27;;;;;;;5.56;56.28;97838.78;5037735;28;20183;-69
2023/12/07 05:05:19;;;;;;;10.30;7.27;;;;;;;5.59;55.66;97838.56;5064348;28;20289;-71
2023/12/07 05:07:45;;;;;;;13.23;8.40;;;;;;;5.52;55.67;97840.75;5056611;28;20193;-69
2023/12/07 05:10:10;;;;;;;12.93;8.37;;;;;;;5.46;56.08;97849.00;5058971;28;20175;-70
2023/12/07 05:12:36;;;;;;;11.97;8.97;;;;;;;5.38;56.00;97841.72;5063174;28;20273;-69
2023/12/07 05:15:04;;;;;;;10.47;7.80;;;;;;;5.42;56.07;97846.72;5061875;28;20226;-69
2023/12/07 05:17:29;;;;;;;9.30;7.87;;;;;;;5.31;55.92;97844.81;5061972;28;20194;-70
2023/12/07 05:19:54;;;;;;;11.20;8.60;;;;;;;5.30;56.52;97846.56;5061693;28;20523;-70
2023/12/07 05:22:21;;;;;;;13.63;8.70;;;;;;;5.32;56.88;97847.31;5052985;28;20206;-69
2023/12/07 05:24:46;;;;;;;13.20;8.80;;;;;;;5.33;56.11;97848.97;5052622;28;20215;-69
2023/12/07 05:27:12;;;;;;;14.40;8.33;;;;;;;5.36;56.14;97853.13;5054156;28;20780;-68
2023/12/07 05:29:38;;;;;;;13.40;9.03;;;;;;;5.35;56.31;97854.91;5057882;28;20183;-68
2023/12/07 05:32:04;;;;;;;12.23;8.50;;;;;;;5.38;56.13;97857.31;5065896;28;20187;-68
2023/12/07 05:34:29;;;;;;;10.80;8.47;;;;;;;5.41;56.21;97855.44;5063774;28;20437;-67
2023/12/07 05:36:55;;;;;;;11.70;8.80;;;;;;;5.34;55.74;97855.84;5056407;28;20424;-69
2023/12/07 05:39:20;;;;;;;12.97;9.87;;;;;;;5.31;56.11;97850.84;5058890;28;20213;-68
2023/12/07 05:41:46;;;;;;;16.80;9.63;;;;;;;5.25;55.58;97855.63;5061228;28;20179;-69
2023/12/07 05:44:12;;;;;;;14.40;10.20;;;;;;;5.18;55.95;97857.78;5047901;28;20198;-69
2023/12/07 05:46:38;;;;;;;30.00;21.67;;;;;;;5.07;56.36;97855.94;5064102;28;20464;-69
2023/12/07 05:49:04;;;;;;;53.50;31.90;;;;;;;5.05;56.44;97850.81;5065655;28;20174;-69
2023/12/07 05:51:29;;;;;;;86.00;46.77;;;;;;;5.12;56.29;97855.63;5062709;28;20436;-69
2023/12/07 05:53:55;;;;;;;103.77;52.80;;;;;;;5.19;56.39;97851.66;5066464;28;20289;-69
2023/12/07 05:56:20;;;;;;;44.53;25.30;;;;;;;5.06;56.37;97847.28;5067977;28;20277;-69
2023/12/07 05:58:46;;;;;;;22.40;15.57;;;;;;;4.98;56.42;97846.97;5062680;28;20216;-70
2023/12/07 06:01:12;;;;;;;16.33;12.20;;;;;;;4.95;56.81;97847.16;5056016;28;20186;-69
2023/12/07 06:03:37;;;;;;;13.17;9.80;;;;;;;4.94;56.36;97840.31;5057406;28;20421;-69
2023/12/07 06:06:03;;;;;;;12.77;9.50;;;;;;;4.93;56.56;97830.84;5069679;28;20328;-67
2023/12/07 06:08:29;;;;;;;15.33;10.30;;;;;;;4.87;56.37;97842.47;5068110;28;20277;-69
2023/12/07 06:10:54;;;;;;;11.50;8.83;;;;;;;4.91;56.74;97843.13;5056892;28;20559;-67
2023/12/07 06:13:20;;;;;;;12.40;9.70;;;;;;;4.96;56.86;97851.44;5066613;28;20747;-68
2023/12/07 06:15:45;;;;;;;13.63;9.10;;;;;;;4.94;56.36;97850.69;5068617;28;20198;-69
2023/12/07 06:18:10;;;;;;;12.53;9.30;;;;;;;4.95;56.65;97841.16;5067065;28;20190;-70
2023/12/07 06:20:36;;;;;;;13.03;10.33;;;;;;;4.86;56.31;97842.59;5068191;28;20242;-69
2023/12/07 06:23:04;;;;;;;19.77;10.20;;;;;;;4.81;56.77;97839.44;5066145;28;20217;-71
2023/12/07 06:25:29;;;;;;;15.50;10.97;;;;;;;4.72;56.93;97841.72;5068377;28;20275;-69
2023/12/07 06:27:56;;;;;;;17.30;11.70;;;;;;;4.80;56.60;97845.56;5066594;28;20440;-70
2023/12/07 06:30:21;;;;;;;14.50;11.27;;;;;;;4.83;56.33;97841.03;5048647;28;20171;-69
2023/12/07 06:32:47;;;;;;;21.40;11.97;;;;;;;4.82;56.06;97847.16;5050326;28;20425;-69
2023/12/07 06:35:12;;;;;;;17.73;11.80;;;;;;;4.79;55.96;97852.53;5058369;28;20724;-70
2023/12/07 06:37:39;;;;;;;15.00;10.57;;;;;;;4.81;56.38;97842.03;5060373;28;20663;-71
2023/12/07 06:40:06;;;;;;;15.37;10.13;;;;;;;4.78;55.96;97847.47;5066148;28;20212;-70
2023/12/07 06:42:31;;;;;;;23.00;11.90;;;;;;;4.71;56.20;97847.84;5049724;28;20489;-69
2023/12/07 06:44:57;;;;;;;17.37;12.33;;;;;;;4.70;55.98;97850.56;5065624;28;20862;-69
2023/12/07 06:47:22;;;;;;;21.07;12.50;;;;;;;4.75;56.19;97848.47;5059548;28;20555;-69
2023/12/07 06:49:47;;;;;;;13.37;10.10;;;;;;;4.76;56.03;97858.78;5058666;28;20663;-69
2023/12/07 06:52:13;;;;;;;14.30;10.53;;;;;;;4.75;55.90;97854.50;5066812;28;20182;-70
2023/12/07 06:54:38;;;;;;;17.17;11.07;;;;;;;4.73;56.16;97850.31;5067542;28;20240;-67
2023/12/07 06:57:06;;;;;;;19.40;13.60;;;;;;;4.66;55.79;97860.31;5064453;28;20273;-70
2023/12/07 06:59:32;;;;;;;23.43;13.90;;;;;;;4.62;56.51;97851.03;5066739;28;20209;-68
2023/12/07 07:01:58;;;;;;;19.63;14.00;;;;;;;4.65;56.14;97856.03;5068087;28;20849;-69
2023/12/07 07:04:23;;;;;;;29.70;11.70;;;;;;;4.64;56.13;97849.19;5069879;28;20508;-70
2023/12/07 07:06:49;;;;;;;20.87;11.97;;;;;;;4.61;56.29;97857.16;5064960;28;20697;-69
2023/12/07 07:09:15;;;;;;;20.27;12.40;;;;;;;4.70;56.21;97851.38;5069508;28;20539;-69
2023/12/07 07:11:41;;;;;;;21.73;13.57;;;;;;;4.69;56.11;97854.06;5063300;28;20214;-68
2023/12/07 07:14:07;;;;;;;19.20;11.60;;;;;;;4.60;56.55;97858.91;5066376;28;20830;-70
2023/12/07 07:16:32;;;;;;;20.90;11.37;;;;;;;4.65;56.30;97853.44;5066875;28;20428;-69
2023/12/07 07:18:58;;;;;;;15.50;10.67;;;;;;;4.68;56.19;97850.63;5064014;28;20694;-68
2023/12/07 07:21:23;;;;;;;16.90;11.10;;;;;;;4.73;55.97;97853.78;5057448;28;20187;-70
2023/12/07 07:23:49;;;;;;;16.40;10.63;;;;;;;4.63;56.15;97844.91;5068008;28;20182;-69
2023/12/07 07:26:16;;;;;;;15.20;11.30;;;;;;;4.62;56.16;97853.63;5064604;28;20187;-69
2023/12/07 07:28:43;;;;;;;19.60;11.93;;;;;;;4.60;56.11;97850.31;5069477;28;20269;-69
2023/12/07 07:31:08;;;;;;;19.33;11.60;;;;;;;4.63;56.16;97855.31;5070609;28;20416;-69
2023/12/07 07:33:34;;;;;;;21.90;12.17;;;;;;;4.67;56.51;97845.53;5069281;28;20853;-68
2023/12/07 07:35:59;;;;;;;20.53;12.60;;;;;;;4.59;56.27;97852.09;5050799;28;20775;-69
2023/12/07 07:38:25;;;;;;;18.17;11.77;;;;;;;4.57;56.50;97855.69;5067119;28;20238;-68
2023/12/07 07:40:50;;;;;;;18.60;11.63;;;;;;;4.65;56.58;97853.44;5066267;28;20285;-67
2023/12/07 07:43:16;;;;;;;19.33;11.03;;;;;;;4.62;56.82;97853.63;5062069;28;20210;-69
2023/12/07 07:45:41;;;;;;;16.40;11.90;;;;;;;4.63;56.47;97857.06;5066385;28;20206;-68
2023/12/07 07:48:07;;;;;;;18.40;12.20;;;;;;;4.66;56.31;97862.91;5063299;28;20189;-69
2023/12/07 07:50:32;;;;;;;15.50;10.80;;;;;;;4.72;56.61;97857.31;5069732;28;20618;-69
2023/12/07 07:52:57;;;;;;;17.47;11.87;;;;;;;5.06;55.83;97852.47;5061215;28;20263;-69
2023/12/07 07:55:23;;;;;;;15.87;11.87;;;;;;;5.58;55.51;97857.72;5066187;28;20212;-69
2023/12/07 07:57:48;;;;;;;17.07;12.43;;;;;;;6.03;54.49;97859.88;5067708;28;20213;-69
2023/12/07 08:00:14;;;;;;;17.30;12.13;;;;;;;6.57;53.64;97850.00;5068925;28;20202;-69
2023/12/07 08:02:39;;;;;;;17.10;11.10;;;;;;;7.06;51.83;97855.97;5061153;28;20266;-70
2023/12/07 08:05:05;;;;;;;15.50;11.40;;;;;;;7.47;50.61;97848.63;5065654;28;20635;-69
2023/12/07 08:07:32;;;;;;;20.20;12.00;;;;;;;7.72;49.22;97850.16;5061316;28;20190;-70
2023/12/07 08:09:57;;;;;;;21.40;15.63;;;;;;;7.88;48.96;97856.81;5066573;28;20221;-70
2023/12/07 08:12:23;;;;;;;16.13;11.10;;;;;;;8.24;48.80;97857.47;5067405;28;20437;-71
2023/12/07 08:14:49;;;;;;;18.23;11.60;;;;;;;8.76;47.93;97857.72;5068142;28;20209;-68
2023/12/07 08:17:14;;;;;;;21.47;13.40;;;;;;;8.82;47.24;97849.38;5069298;28;20247;-68
2023/12/07 08:19:41;;;;;;;15.03;11.17;;;;;;;9.10;46.27;97846.28;5067637;28;20871;-69
2023/12/07 08:22:07;;;;;;;19.13;13.57;;;;;;;9.58;46.73;97858.81;5059037;28;20179;-68
2023/12/07 08:24:33;;;;;;;16.40;11.50;;;;;;;9.99;44.67;97857.06;5069705;28;20436;-69
2023/12/07 08:26:58;;;;;;;16.13;11.40;;;;;;;10.29;44.19;97860.63;5050287;28;20463;-68
2023/12/07 08:29:24;;;;;;;15.77;10.60;;;;;;;10.42;43.51;97863.00;5068195;28;20189;-68
2023/12/07 08:31:49;;;;;;;17.60;11.10;;;;;;;10.57;43.66;97855.59;5060052;28;20183;-69
2023/12/07 08:34:15;;;;;;;16.50;11.90;;;;;;;10.83;43.23;97859.47;5065527;28;20195;-69
2023/12/07 08:36:40;;;;;;;15.70;11.57;;;;;;;11.16;42.61;97847.72;5065858;28;20269;-69
2023/12/07 08:39:09;;;;;;;16.77;11.50;;;;;;;11.46;42.79;97843.25;5059992;28;20217;-68
2023/12/07 08:41:36;;;;;;;19.73;12.00;;;;;;;11.52;42.20;97845.28;5054842;28;20661;-69
2023/12/07 08:44:01;;;;;;;19.10;12.67;;;;;;;11.63;42.16;97851.31;5058731;28;20457;-69
2023/12/07 08:46:27;;;;;;;14.33;10.60;;;;;;;11.75;41.31;97858.06;5062851;28;20502;-68
2023/12/07 08:48:53;;;;;;;16.03;11.30;;;;;;;11.58;41.28;97851.75;5055920;28;20787;-68
2023/12/07 08:51:19;;;;;;;19.43;12.50;;;;;;;11.61;42.01;97853.25;5061963;28;20188;-68
2023/12/07 08:53:45;;;;;;;16.73;11.37;;;;;;;11.67;41.83;97843.00;5067910;28;20515;-69
2023/12/07 08:56:12;;;;;;;20.77;12.87;;;;;;;11.45;42.50;97828.47;5066650;28;20228;-69
2023/12/07 08:58:38;;;;;;;17.73;13.80;;;;;;;11.97;41.49;97832.41;5063969;28;20431;-68
2023/12/07 09:01:05;;;;;;;24.23;13.80;;;;;;;12.27;41.41;97828.69;5057270;28;20979;-69
2023/12/07 09:03:31;;;;;;;19.40;13.37;;;;;;;12.56;40.24;97816.31;5054869;28;20495;-69
2023/12/07 09:05:57;;;;;;;16.03;11.27;;;;;;;12.79;40.13;97821.91;5039815;28;20444;-71
2023/12/07 09:08:23;;;;;;;14.90;11.00;;;;;;;12.95;38.74;97823.88;5060119;28;20546;-70
2023/12/07 09:10:50;;;;;;;16.93;10.57;;;;;;;13.14;37.91;97829.94;5067624;28;20525;-69
2023/12/07 09:13:17;;;;;;;17.20;10.70;;;;;;;13.25;37.95;97824.41;5068172;28;20285;-69
2023/12/07 09:15:42;;;;;;;14.90;11.53;;;;;;;13.35;38.23;97819.91;5067332;28;20443;-70
2023/12/07 09:18:07;;;;;;;16.20;10.17;;;;;;;13.55;37.84;97809.16;5067796;28;21168;-69
2023/12/07 09:20:33;;;;;;;16.90;11.90;;;;;;;13.84;38.26;97810.63;5068263;28;20221;-70
2023/12/07 09:22:58;;;;;;;15.53;12.63;;;;;;;13.96;37.07;97812.00;5068002;28;20197;-70
2023/12/07 09:25:27;;;;;;;12.40;9.70;;;;;;;14.02;36.27;97809.69;5064610;28;20836;-70
2023/12/07 09:27:53;;;;;;;9.40;7.40;;;;;;;13.78;35.52;97819.16;5064897;28;20696;-70
2023/12/07 09:30:19;;;;;;;9.60;7.40;;;;;;;13.71;35.20;97821.59;5068577;28;20433;-70
2023/12/07 09:32:44;;;;;;;8.80;7.60;;;;;;;13.64;35.35;97820.56;5068519;28;20243;-69
2023/12/07 09:35:19;;;;;;;9.17;6.97;;;;;;;13.90;34.98;97817.88;5061512;28;20677;-69
2023/12/07 09:37:45;;;;;;;8.97;7.03;;;;;;;13.95;34.52;97814.75;5061696;28;20190;-70
2023/12/07 09:40:19;;;;;;;8.20;6.47;;;;;;;14.00;34.10;97822.19;5058492;28;20457;-70
2023/12/07 09:42:44;;;;;;;8.20;7.20;;;;;;;14.20;34.61;97822.75;5065771;28;20455;-70
2023/12/07 09:45:10;;;;;;;12.93;7.13;;;;;;;14.36;34.49;97814.09;5063133;28;20461;-69
2023/12/07 09:47:37;;;;;;;11.87;6.87;;;;;;;14.58;34.58;97802.91;5067233;28;20641;-69
2023/12/07 09:50:03;;;;;;;11.70;8.07;;;;;;;14.79;33.33;97804.25;5061148;28;20588;-70
2023/12/07 09:52:29;;;;;;;10.07;7.23;;;;;;;14.45;33.72;97807.84;5072381;28;20428;-69
2023/12/07 09:54:55;;;;;;;14.53;7.70;;;;;;;14.39;33.53;97793.50;5067425;28;20546;-69
2023/12/07 09:57:21;;;;;;;10.13;7.80;;;;;;;14.76;33.27;97788.75;5053471;28;20186;-69
2023/12/07 09:59:46;;;;;;;11.53;7.60;;;;;;;14.78;32.96;97794.69;5068849;28;20203;-69
2023/12/07 10:02:13;;;;;;;9.20;7.00;;;;;;;14.92;33.30;97795.88;5064017;28;20486;-69
2023/12/07 10:04:39;;;;;;;12.17;7.47;;;;;;;15.00;32.78;97787.94;5071811;28;20206;-68
2023/12/07 10:07:08;;;;;;;10.27;7.30;;;;;;;15.50;32.15;97788.66;5071141;28;20444;-70
2023/12/07 10:09:37;;;;;;;12.50;7.60;;;;;;;15.54;32.06;97785.69;5063225;28;20420;-69
2023/12/07 10:12:04;;;;;;;10.97;7.90;;;;;;;15.80;32.03;97774.88;5066237;28;20450;-71
2023/12/07 10:14:29;;;;;;;11.33;7.53;;;;;;;15.48;31.51;97772.19;5064585;28;20455;-70
2023/12/07 10:16:56;;;;;;;12.83;8.57;;;;;;;15.66;32.17;97768.47;5062886;28;20417;-69
2023/12/07 10:19:21;;;;;;;10.00;7.10;;;;;;;15.88;30.72;97756.34;5070257;28;20252;-71
2023/12/07 10:21:50;;;;;;;9.10;7.53;;;;;;;16.05;30.85;97765.03;5071313;28;20456;-70
2023/12/07 10:24:17;;;;;;;9.50;7.20;;;;;;;16.32;30.99;97762.88;5069022;28;20236;-70
2023/12/07 10:26:47;;;;;;;10.60;6.80;;;;;;;16.48;30.29;97753.19;5070096;28;20452;-71
2023/12/07 10:29:12;;;;;;;11.33;6.90;;;;;;;16.41;30.15;97745.94;5050499;28;20413;-69
2023/12/07 10:31:38;;;;;;;16.53;7.03;;;;;;;16.61;29.86;97748.13;5064678;28;20467;-69
2023/12/07 10:34:04;;;;;;;12.03;7.77;;;;;;;16.44;29.83;97744.78;5068811;28;20206;-68
2023/12/07 10:36:30;;;;;;;10.73;6.97;;;;;;;16.42;29.43;97744.16;5067948;28;20696;-69
2023/12/07 10:38:56;;;;;;;10.40;8.17;;;;;;;16.51;29.84;97745.72;5067721;28;20555;-69
2023/12/07 10:41:23;;;;;;;9.97;8.17;;;;;;;16.79;29.79;97742.53;5070691;28;20504;-69
2023/12/07 10:43:59;;;;;;;9.47;6.90;;;;;;;16.76;28.57;97742.06;5071224;28;20188;-69
2023/12/07 10:46:26;;;;;;;8.30;6.37;;;;;;;16.76;28.68;97736.78;5065179;28;20416;-69
2023/12/07 10:48:56;;;;;;;8.97;6.73;;;;;;;16.42;28.78;97741.50;5052373;28;20842;-70
2023/12/07 10:51:45;;;;;;;7.40;6.60;;;;;;;16.29;28.97;97736.78;5052075;28;20806;-71
2023/12/07 10:54:14;;;;;;;8.30;6.43;;;;;;;16.50;28.92;97736.13;5049487;28;20456;-70
2023/12/07 10:56:43;;;;;;;8.93;6.57;;;;;;;16.22;29.16;97735.84;5052718;28;21220;-71
2023/12/07 10:59:13;;;;;;;7.50;6.60;;;;;;;16.42;29.40;97733.56;5070425;28;20456;-70
2023/12/07 11:01:42;;;;;;;12.07;6.50;;;;;;;16.56;28.80;97724.03;5070880;28;20424;-70
2023/12/07 11:04:11;;;;;;;8.17;5.80;;;;;;;16.89;28.34;97729.00;5068803;28;20820;-70
2023/12/07 11:06:37;;;;;;;7.47;6.30;;;;;;;16.80;28.31;97719.50;5065208;28;20425;-70
2023/12/07 11:09:05;;;;;;;5.63;5.07;;;;;;;16.42;27.57;97715.84;5049533;28;20942;-71
2023/12/07 11:11:31;;;;;;;7.67;4.90;;;;;;;16.30;28.25;97709.34;5061555;28;20439;-70
2023/12/07 11:14:05;;;;;;;7.40;5.20;;;;;;;16.34;28.26;97701.88;5063993;28;20816;-69
2023/12/07 11:16:35;;;;;;;7.70;4.60;;;;;;;16.34;27.85;97696.56;5047416;28;20686;-70
2023/12/07 11:19:00;;;;;;;6.43;5.23;;;;;;;16.19;28.48;97697.34;5066656;28;20487;-69
2023/12/07 11:21:26;;;;;;;7.80;4.70;;;;;;;16.42;27.65;97684.13;5070385;28;20876;-70
2023/12/07 11:23:53;;;;;;;10.70;4.40;;;;;;;16.43;28.16;97680.47;5068717;28;20182;-70
2023/12/07 11:26:20;;;;;;;5.00;4.27;;;;;;;15.55;28.13;97687.78;5068785;28;20533;-70